Terminal Aerodrome Forecast
Issued by NWS

Home | Current Version | Previous Version | Text Only | Print | Product List | Glossary On
Versions: 1 2 3 4 5 6 7 8 9 10 11 12 13 14 15 16 17 18 19 20 21 22 23 24 25 26 27
000
FTUS45 KGJT 230919 AAB
TAFMTJ
TAF AMD
KMTJ 230919Z 2309/2406 30005KT P6SM VCSH FEW030 BKN050 OVC070
      TEMPO 2309/2312 3SM -SN BR SCT010 BKN030
     FM231500 33007KT 5SM -SN BR SCT025 BKN040
     FM231800 33010G20KT P6SM VCSH SCT040 BKN100
     FM240200 17007KT P6SM SCT070 BKN120=

USA.gov is the U.S. government's official web portal to all federal, state and local government web resources and services.